Air Navigation Services of Czech Republic
Airport: LKCV Updated:  01.04.2020 01:00:28  UTC
 METAR LKCV 01.04. 01:00 ...
METAR LKCV 010100Z 13003KT CAVOK M05/M06 Q1025 NOSIG RMK BLU BLU=
 TAF LKCV 31.03. 23:00 ...
TAF LKCV 312300Z 0100/0200 VRB02KT CAVOK      PROB40 TEMPO 0102/0106 4000 BR      TEMPO 0104/0115 SCT035      TEMPO 0111/0118 26008KT=